Time;durP1;ratioP1;P1;durP2;ratioP2;P2;SDS_P1;SDS_P2;PMS_P1;PMS_P2;Temp;Humidity;BMP_temperature;BMP_pressure;BME280_temperature;BME280_humidity;BME280_pressure;Samples;Min_cycle;Max_cycle;Signal;HPM_P1;HPM_P2
2021/08/08 04:51:56;;;;;;;6.47;4.40;;;;;;;;;;5337562;23;20049;-64
2021/08/08 04:54:23;;;;;;;7.07;4.57;;;;;;;;;;5011995;28;20606;-64
2021/08/08 04:56:51;;;;;;;8.05;5.05;;;;;;;;;;5029921;28;20052;-64
2021/08/08 04:59:18;;;;;;;7.78;5.43;;;;;;;;;;5012240;28;20045;-64
2021/08/08 05:01:45;;;;;;;8.70;5.40;;;;;;;;;;5012272;28;20049;-65
2021/08/08 05:04:13;;;;;;;9.57;5.40;;;;;;;;;;5012173;28;20045;-63
2021/08/08 05:06:40;;;;;;;10.80;5.32;;;;;;;;;;5012393;28;20045;-63
2021/08/08 05:09:09;;;;;;;7.57;5.53;;;;;;;;;;5030018;28;20068;-63
2021/08/08 05:11:37;;;;;;;9.23;5.13;;;;;;;;;;5011860;28;20500;-64
2021/08/08 05:14:04;;;;;;;6.68;5.60;;;;;;;;;;5012101;28;20048;-64
2021/08/08 05:16:36;;;;;;;12.02;6.88;;;;;;;;;;5011625;28;20076;-64
2021/08/08 05:19:03;;;;;;;6.82;5.20;;;;;;;;;;5011854;28;20420;-64
2021/08/08 05:21:33;;;;;;;13.45;5.88;;;;;;;;;;5012036;28;20432;-64
2021/08/08 05:24:00;;;;;;;14.52;5.75;;;;;;;;;;5012139;28;20045;-64
2021/08/08 05:26:29;;;;;;;8.40;4.93;;;;;;;;;;5011807;28;20073;-64
2021/08/08 05:28:56;;;;;;;6.80;5.18;;;;;;;;;;5011867;28;20038;-64
2021/08/08 05:31:23;;;;;;;9.98;5.00;;;;;;;;;;5011622;28;20075;-64
2021/08/08 05:33:51;;;;;;;9.15;4.22;;;;;;;;;;5011959;28;20452;-64
2021/08/08 05:36:19;;;;;;;8.93;4.22;;;;;;;;;;5011469;28;20055;-64
2021/08/08 05:38:46;;;;;;;8.63;4.55;;;;;;;;;;5012030;28;20468;-65
2021/08/08 05:41:13;;;;;;;4.30;3.90;;;;;;;;;;5011309;28;20136;-64
2021/08/08 05:43:42;;;;;;;5.97;3.78;;;;;;;;;;4997547;28;20564;-64
2021/08/08 05:46:09;;;;;;;6.85;3.33;;;;;;;;;;5009530;28;20046;-64
2021/08/08 05:48:37;;;;;;;7.85;4.03;;;;;;;;;;5009746;28;20453;-64
2021/08/08 05:51:04;;;;;;;8.20;3.58;;;;;;;;;;4994798;28;20324;-65
2021/08/08 05:53:32;;;;;;;4.32;3.25;;;;;;;;;;5008515;28;20123;-63
2021/08/08 05:56:00;;;;;;;6.90;3.42;;;;;;;;;;5008319;28;20547;-64
2021/08/08 05:58:28;;;;;;;4.90;3.78;;;;;;;;;;5008404;28;20080;-64
2021/08/08 06:00:57;;;;;;;7.65;3.10;;;;;;;;;;5009941;28;20378;-64
2021/08/08 06:03:24;;;;;;;7.28;3.38;;;;;;;;;;5010029;28;20465;-63
2021/08/08 06:05:51;;;;;;;6.07;3.08;;;;;;;;;;5008277;28;20176;-66
2021/08/08 06:08:19;;;;;;;6.55;3.15;;;;;;;;;;5008524;28;20053;-64
2021/08/08 06:10:47;;;;;;;6.47;3.05;;;;;;;;;;5007911;28;20103;-64
2021/08/08 06:13:17;;;;;;;7.57;2.97;;;;;;;;;;5008390;28;20208;-65
2021/08/08 06:15:46;;;;;;;5.57;3.13;;;;;;;;;;5008130;28;20045;-64
2021/08/08 06:18:17;;;;;;;6.72;2.65;;;;;;;;;;5007758;28;20053;-65
2021/08/08 06:20:44;;;;;;;10.20;2.88;;;;;;;;;;5008062;28;20077;-65
2021/08/08 06:23:15;;;;;;;9.82;3.53;;;;;;;;;;5008043;28;20510;-64
2021/08/08 06:25:42;;;;;;;6.38;2.50;;;;;;;;;;5007930;28;20042;-65
2021/08/08 06:28:10;;;;;;;4.88;2.67;;;;;;;;;;5008700;28;20084;-65
2021/08/08 06:30:37;;;;;;;5.78;2.60;;;;;;;;;;5011675;28;20575;-64
2021/08/08 06:33:04;;;;;;;5.45;2.38;;;;;;;;;;5011810;28;20523;-64
2021/08/08 06:35:34;;;;;;;7.95;3.08;;;;;;;;;;5011812;28;20104;-65
2021/08/08 06:38:01;;;;;;;5.10;2.60;;;;;;;;;;5011568;28;20436;-64
2021/08/08 06:40:28;;;;;;;4.65;2.70;;;;;;;;;;5021088;28;20565;-65
2021/08/08 06:42:56;;;;;;;6.45;2.90;;;;;;;;;;5023086;28;20053;-66
2021/08/08 06:45:24;;;;;;;3.92;2.38;;;;;;;;;;5011533;28;20042;-65
2021/08/08 06:47:51;;;;;;;8.25;3.13;;;;;;;;;;5013133;28;20168;-65
2021/08/08 06:50:19;;;;;;;4.72;2.60;;;;;;;;;;5011608;28;20092;-64
2021/08/08 06:52:47;;;;;;;6.32;2.92;;;;;;;;;;5013051;28;20041;-65
2021/08/08 06:55:15;;;;;;;4.88;2.78;;;;;;;;;;5012791;28;20456;-64
2021/08/08 06:57:42;;;;;;;5.30;2.95;;;;;;;;;;4994740;28;20132;-64
2021/08/08 07:00:14;;;;;;;6.00;2.63;;;;;;;;;;4994821;28;20042;-65
2021/08/08 07:02:42;;;;;;;10.02;2.95;;;;;;;;;;4994865;28;20531;-64
2021/08/08 07:05:10;;;;;;;7.43;2.70;;;;;;;;;;4994997;28;20563;-65
2021/08/08 07:07:37;;;;;;;3.95;1.98;;;;;;;;;;4994930;28;20061;-64
2021/08/08 07:10:06;;;;;;;8.63;3.00;;;;;;;;;;4994894;28;20065;-65
2021/08/08 07:12:36;;;;;;;7.55;2.70;;;;;;;;;;4995184;28;20452;-64
2021/08/08 07:15:04;;;;;;;4.82;2.80;;;;;;;;;;4994732;28;20561;-65
2021/08/08 07:17:32;;;;;;;11.90;6.20;;;;;;;;;;4994277;28;20069;-65
2021/08/08 07:19:59;;;;;;;4.00;2.50;;;;;;;;;;4994073;28;20050;-65
2021/08/08 07:22:27;;;;;;;7.40;2.50;;;;;;;;;;4993855;28;20046;-65
2021/08/08 07:24:54;;;;;;;5.80;2.58;;;;;;;;;;5011581;28;20054;-64
2021/08/08 07:27:23;;;;;;;4.38;2.70;;;;;;;;;;4993672;28;20092;-65
2021/08/08 07:29:51;;;;;;;9.15;2.60;;;;;;;;;;4994125;28;20121;-65
2021/08/08 07:32:19;;;;;;;6.07;2.58;;;;;;;;;;4994227;28;20497;-65
2021/08/08 07:34:46;;;;;;;4.32;2.40;;;;;;;;;;5012458;28;20378;-65
2021/08/08 07:37:14;;;;;;;6.85;2.67;;;;;;;;;;4993826;28;20057;-64
2021/08/08 07:39:41;;;;;;;3.78;1.95;;;;;;;;;;4995454;28;20136;-65
2021/08/08 07:42:09;;;;;;;2.42;1.88;;;;;;;;;;5011900;28;20073;-64
2021/08/08 07:44:38;;;;;;;3.92;2.03;;;;;;;;;;4993834;28;20050;-65
2021/08/08 07:47:05;;;;;;;5.57;1.95;;;;;;;;;;5012270;28;20049;-65
2021/08/08 07:49:32;;;;;;;4.85;1.58;;;;;;;;;;4996131;28;20475;-65
2021/08/08 07:52:00;;;;;;;3.20;1.20;;;;;;;;;;5004154;28;20062;-65
2021/08/08 07:54:27;;;;;;;4.20;1.67;;;;;;;;;;5010007;28;20478;-65
2021/08/08 07:56:55;;;;;;;4.55;1.67;;;;;;;;;;5009659;28;20080;-65
2021/08/08 07:59:22;;;;;;;5.55;1.70;;;;;;;;;;5009659;28;20053;-65
2021/08/08 08:01:50;;;;;;;6.20;2.08;;;;;;;;;;5009876;28;20050;-65
2021/08/08 08:04:19;;;;;;;3.58;1.48;;;;;;;;;;5009755;28;20054;-65
2021/08/08 08:07:01;;;;;;;3.58;1.60;;;;;;;;;;5010050;28;20053;-65
2021/08/08 08:09:35;;;;;;;7.05;1.55;;;;;;;;;;5011130;28;20521;-66
2021/08/08 08:12:02;;;;;;;4.60;1.40;;;;;;;;;;5010836;28;20046;-65
2021/08/08 08:14:30;;;;;;;7.10;1.77;;;;;;;;;;5009977;28;20104;-65
2021/08/08 08:16:58;;;;;;;2.75;1.27;;;;;;;;;;5010039;28;20132;-65
2021/08/08 08:19:26;;;;;;;1.63;1.08;;;;;;;;;;5011301;28;20111;-66
2021/08/08 08:21:53;;;;;;;5.40;1.48;;;;;;;;;;5011089;28;20057;-66
2021/08/08 08:24:21;;;;;;;2.50;1.27;;;;;;;;;;5009789;28;20085;-65
2021/08/08 08:26:48;;;;;;;4.10;1.63;;;;;;;;;;5009779;28;20069;-65
2021/08/08 08:29:15;;;;;;;4.07;1.35;;;;;;;;;;5009515;28;20042;-66
2021/08/08 08:31:43;;;;;;;6.93;1.70;;;;;;;;;;5009546;28;20042;-65
2021/08/08 08:34:12;;;;;;;4.50;1.33;;;;;;;;;;5009763;28;20053;-65
2021/08/08 08:36:48;;;;;;;5.05;1.40;;;;;;;;;;5009988;28;20069;-65
2021/08/08 08:39:40;;;;;;;11.10;1.50;;;;;;;;;;5012421;28;20049;-65
2021/08/08 08:42:09;;;;;;;4.70;1.33;;;;;;;;;;5027708;28;20123;-65
2021/08/08 08:44:36;;;;;;;5.15;1.73;;;;;;;;;;5009420;28;20042;-65
2021/08/08 08:47:04;;;;;;;3.92;1.30;;;;;;;;;;5009351;28;20148;-66
2021/08/08 08:49:35;;;;;;;6.68;1.50;;;;;;;;;;5009530;28;20069;-65
2021/08/08 08:52:03;;;;;;;2.40;1.13;;;;;;;;;;5009590;28;20062;-65
2021/08/08 08:54:31;;;;;;;5.63;1.60;;;;;;;;;;5009144;28;20128;-65
2021/08/08 08:57:00;;;;;;;5.63;1.52;;;;;;;;;;5009764;28;20088;-65
2021/08/08 08:59:29;;;;;;;5.68;1.33;;;;;;;;;;5008826;28;20449;-65
2021/08/08 09:01:58;;;;;;;4.47;1.25;;;;;;;;;;5008812;28;20460;-65
2021/08/08 09:04:25;;;;;;;3.15;1.30;;;;;;;;;;5008841;28;20053;-65
2021/08/08 09:06:55;;;;;;;5.90;1.10;;;;;;;;;;5008609;28;20076;-65
2021/08/08 09:09:22;;;;;;;5.18;1.67;;;;;;;;;;5008705;28;20132;-65
2021/08/08 09:11:52;;;;;;;5.97;1.83;;;;;;;;;;5008485;28;20104;-65
2021/08/08 09:14:23;;;;;;;3.90;1.33;;;;;;;;;;5008919;28;20501;-65
2021/08/08 09:16:51;;;;;;;4.22;1.20;;;;;;;;;;5008657;28;20045;-65
2021/08/08 09:19:22;;;;;;;2.00;1.27;;;;;;;;;;5008004;28;20068;-64
2021/08/08 09:21:52;;;;;;;4.22;1.40;;;;;;;;;;5008641;28;20050;-65
2021/08/08 09:24:25;;;;;;;3.38;1.25;;;;;;;;;;5009243;28;20049;-64
2021/08/08 09:27:03;;;;;;;4.25;1.17;;;;;;;;;;5008829;28;20053;-65
2021/08/08 09:29:31;;;;;;;4.57;1.20;;;;;;;;;;5008478;28;20096;-65
2021/08/08 09:31:59;;;;;;;6.32;1.30;;;;;;;;;;5009243;28;20058;-65
2021/08/08 09:34:27;;;;;;;4.65;1.45;;;;;;;;;;5008483;28;20049;-65
2021/08/08 09:36:55;;;;;;;4.60;1.48;;;;;;;;;;5010288;28;20450;-65
2021/08/08 09:39:31;;;;;;;3.00;1.42;;;;;;;;;;5009662;28;20446;-65
2021/08/08 09:42:21;;;;;;;4.80;3.20;;;;;;;;;;5008447;28;20468;-64
2021/08/08 09:44:52;;;;;;;4.80;1.40;;;;;;;;;;5026633;28;20532;-65
2021/08/08 09:47:20;;;;;;;4.30;1.40;;;;;;;;;;5029574;28;20056;-65
2021/08/08 09:49:55;;;;;;;5.03;1.40;;;;;;;;;;5029309;28;20041;-66
2021/08/08 09:52:22;;;;;;;4.55;1.55;;;;;;;;;;5029229;28;20510;-65
2021/08/08 09:54:51;;;;;;;4.78;1.50;;;;;;;;;;5028066;28;20592;-65
2021/08/08 09:57:18;;;;;;;4.95;1.08;;;;;;;;;;5029634;28;20053;-65
2021/08/08 09:59:48;;;;;;;3.20;1.20;;;;;;;;;;5029127;28;20045;-65
2021/08/08 10:02:19;;;;;;;2.33;1.08;;;;;;;;;;5028543;28;20049;-65
2021/08/08 10:04:46;;;;;;;4.15;1.27;;;;;;;;;;5033524;28;20053;-66
2021/08/08 10:07:14;;;;;;;3.63;1.38;;;;;;;;;;5033206;28;20049;-66
2021/08/08 10:09:41;;;;;;;4.32;1.20;;;;;;;;;;5033354;28;20034;-65
2021/08/08 10:12:17;;;;;;;4.63;1.30;;;;;;;;;;5033095;28;20076;-66
2021/08/08 10:14:45;;;;;;;3.22;1.10;;;;;;;;;;5033320;28;20540;-65
2021/08/08 10:17:13;;;;;;;4.55;1.10;;;;;;;;;;5033096;28;20053;-66
2021/08/08 10:19:41;;;;;;;3.72;1.33;;;;;;;;;;5032700;28;20300;-65
2021/08/08 10:22:08;;;;;;;4.90;1.33;;;;;;;;;;5032884;28;20493;-65
2021/08/08 10:24:38;;;;;;;3.58;1.35;;;;;;;;;;5032844;28;20386;-65
2021/08/08 10:27:21;;;;;;;4.38;1.08;;;;;;;;;;5031878;28;20049;-65
2021/08/08 10:29:49;;;;;;;7.80;1.30;;;;;;;;;;5033025;28;20132;-66
2021/08/08 10:32:16;;;;;;;5.05;1.40;;;;;;;;;;5031262;28;20045;-66
2021/08/08 10:34:43;;;;;;;4.25;1.25;;;;;;;;;;5033027;28;20073;-65
2021/08/08 10:37:11;;;;;;;3.58;1.00;;;;;;;;;;5032628;28;20056;-66
2021/08/08 10:39:40;;;;;;;4.47;1.13;;;;;;;;;;5031175;28;20048;-65
2021/08/08 10:42:07;;;;;;;4.03;1.23;;;;;;;;;;5013963;28;20117;-66
2021/08/08 10:44:47;;;;;;;2.00;1.45;;;;;;;;;;5032378;28;20037;-65
2021/08/08 10:47:24;;;;;;;1.70;0.95;;;;;;;;;;5032496;28;20050;-65
2021/08/08 10:49:51;;;;;;;2.92;1.20;;;;;;;;;;5032373;28;20511;-66
2021/08/08 10:52:19;;;;;;;3.55;1.25;;;;;;;;;;5032565;28;20068;-65
2021/08/08 10:54:47;;;;;;;4.72;1.10;;;;;;;;;;5032641;28;20049;-66
2021/08/08 10:57:15;;;;;;;3.65;1.20;;;;;;;;;;5032733;28;20042;-65
2021/08/08 10:59:44;;;;;;;5.85;1.02;;;;;;;;;;5032024;28;20044;-66
2021/08/08 11:02:14;;;;;;;2.67;1.17;;;;;;;;;;5031818;28;20121;-66
2021/08/08 11:04:41;;;;;;;8.23;1.50;;;;;;;;;;5032008;28;20612;-65
2021/08/08 11:07:09;;;;;;;2.55;1.30;;;;;;;;;;5032109;28;20051;-66
2021/08/08 11:09:37;;;;;;;2.65;1.08;;;;;;;;;;5032083;28;20037;-66
2021/08/08 11:12:05;;;;;;;6.53;1.20;;;;;;;;;;5032255;28;20045;-65
2021/08/08 11:14:32;;;;;;;3.28;1.40;;;;;;;;;;5031669;28;20051;-66
2021/08/08 11:17:00;;;;;;;4.60;1.45;;;;;;;;;;5032013;28;20401;-65
2021/08/08 11:19:33;;;;;;;4.68;1.67;;;;;;;;;;5031743;28;20052;-65
2021/08/08 11:22:10;;;;;;;4.47;1.27;;;;;;;;;;5031862;28;20560;-66
2021/08/08 11:24:38;;;;;;;4.82;1.40;;;;;;;;;;5031835;28;20311;-66
2021/08/08 11:27:05;;;;;;;5.68;1.50;;;;;;;;;;5031837;28;20092;-65
2021/08/08 11:29:33;;;;;;;8.13;1.80;;;;;;;;;;5031646;28;20041;-66
2021/08/08 11:32:01;;;;;;;4.38;1.70;;;;;;;;;;5031572;28;20054;-66
2021/08/08 11:34:29;;;;;;;3.83;1.67;;;;;;;;;;5031898;28;20048;-66
2021/08/08 11:36:57;;;;;;;3.17;1.08;;;;;;;;;;5031797;28;20060;-66
2021/08/08 11:39:32;;;;;;;3.40;1.35;;;;;;;;;;5031527;28;20044;-65
2021/08/08 11:42:04;;;;;;;3.33;1.50;;;;;;;;;;5011906;28;20080;-65
2021/08/08 11:44:38;;;;;;;4.80;1.35;;;;;;;;;;5031450;28;20129;-64
2021/08/08 11:47:06;;;;;;;4.00;1.38;;;;;;;;;;5031542;28;20049;-65
2021/08/08 11:49:43;;;;;;;4.80;1.60;;;;;;;;;;5031690;28;20030;-64
2021/08/08 11:52:13;;;;;;;4.18;1.40;;;;;;;;;;5032394;28;20509;-65
2021/08/08 11:54:40;;;;;;;7.40;1.48;;;;;;;;;;5038330;28;20049;-65
2021/08/08 11:57:09;;;;;;;3.35;1.58;;;;;;;;;;5037563;28;20061;-65
2021/08/08 11:59:38;;;;;;;3.38;1.33;;;;;;;;;;5040403;28;20068;-66
2021/08/08 12:02:06;;;;;;;5.82;1.40;;;;;;;;;;5039092;28;20081;-64
2021/08/08 12:04:34;;;;;;;7.88;1.55;;;;;;;;;;5032958;28;20124;-65
2021/08/08 12:07:03;;;;;;;6.45;1.45;;;;;;;;;;5032390;28;20045;-65
2021/08/08 12:09:32;;;;;;;3.72;1.42;;;;;;;;;;5033193;28;20099;-65
2021/08/08 12:12:00;;;;;;;6.30;1.98;;;;;;;;;;5031473;28;20512;-65
2021/08/08 12:14:32;;;;;;;6.75;1.92;;;;;;;;;;5030798;28;20409;-64
2021/08/08 12:17:07;;;;;;;9.55;2.10;;;;;;;;;;5030852;28;20128;-64
2021/08/08 12:19:35;;;;;;;4.35;2.00;;;;;;;;;;5030636;28;20099;-64
2021/08/08 12:22:03;;;;;;;4.22;1.80;;;;;;;;;;5030768;28;20038;-64
2021/08/08 12:24:36;;;;;;;5.65;1.90;;;;;;;;;;5030837;28;20049;-64
2021/08/08 12:27:04;;;;;;;5.65;2.13;;;;;;;;;;5029962;28;20048;-64
2021/08/08 12:29:33;;;;;;;8.40;2.25;;;;;;;;;;5030769;28;20041;-65
2021/08/08 12:32:12;;;;;;;6.03;2.00;;;;;;;;;;5030409;28;20049;-65
2021/08/08 12:34:39;;;;;;;11.68;2.08;;;;;;;;;;5030486;28;20052;-65
2021/08/08 12:37:08;;;;;;;6.80;1.88;;;;;;;;;;5030536;28;20129;-66
2021/08/08 12:39:37;;;;;;;4.85;1.60;;;;;;;;;;5029295;28;20096;-65
2021/08/08 12:42:04;;;;;;;5.97;1.50;;;;;;;;;;5011571;28;20456;-65
2021/08/08 12:44:33;;;;;;;4.63;1.65;;;;;;;;;;5030600;28;20045;-66
2021/08/08 12:47:01;;;;;;;6.93;1.73;;;;;;;;;;5030221;28;20394;-65
2021/08/08 12:49:35;;;;;;;4.03;1.30;;;;;;;;;;5030451;28;20096;-65
2021/08/08 12:52:03;;;;;;;4.13;1.48;;;;;;;;;;5029856;28;20076;-65
2021/08/08 12:54:30;;;;;;;4.47;1.38;;;;;;;;;;5030002;28;20042;-66
2021/08/08 12:56:59;;;;;;;5.95;1.60;;;;;;;;;;5030450;28;20053;-65
2021/08/08 12:59:26;;;;;;;4.40;1.35;;;;;;;;;;5029891;28;20043;-66
2021/08/08 13:01:53;;;;;;;6.10;1.20;;;;;;;;;;5029992;28;20055;-65
2021/08/08 13:04:21;;;;;;;6.93;2.30;;;;;;;;;;5029706;28;20052;-65
2021/08/08 13:06:48;;;;;;;7.13;1.50;;;;;;;;;;5030006;28;20048;-65
2021/08/08 13:09:15;;;;;;;5.50;1.50;;;;;;;;;;5029953;28;20175;-65
2021/08/08 13:11:42;;;;;;;5.57;1.40;;;;;;;;;;5030234;28;20049;-65
2021/08/08 13:14:11;;;;;;;5.70;1.42;;;;;;;;;;5029854;28;20547;-65
2021/08/08 13:16:39;;;;;;;6.50;1.80;;;;;;;;;;5029671;28;20051;-65
2021/08/08 13:19:06;;;;;;;4.57;2.08;;;;;;;;;;5029628;28;20053;-64
2021/08/08 13:21:34;;;;;;;8.43;1.58;;;;;;;;;;5027935;28;20041;-65
2021/08/08 13:24:02;;;;;;;4.45;2.10;;;;;;;;;;5029557;28;20049;-65
2021/08/08 13:26:31;;;;;;;4.95;1.75;;;;;;;;;;5029585;28;20489;-65
2021/08/08 13:28:59;;;;;;;9.68;1.90;;;;;;;;;;5029479;28;20496;-64
2021/08/08 13:31:27;;;;;;;4.05;1.58;;;;;;;;;;5029410;28;20409;-64
2021/08/08 13:33:54;;;;;;;4.03;1.73;;;;;;;;;;5029469;28;20556;-67
2021/08/08 13:36:23;;;;;;;3.08;1.23;;;;;;;;;;5029706;28;20049;-64
2021/08/08 13:38:50;;;;;;;3.75;1.02;;;;;;;;;;5033061;28;20045;-64
2021/08/08 13:41:18;;;;;;;4.63;1.33;;;;;;;;;;5018667;28;20050;-68
2021/08/08 13:43:45;;;;;;;3.50;1.02;;;;;;;;;;5028857;28;20389;-65
2021/08/08 13:46:13;;;;;;;2.33;1.20;;;;;;;;;;5034136;28;20129;-65
2021/08/08 13:48:41;;;;;;;2.47;1.13;;;;;;;;;;5033640;28;20444;-65
2021/08/08 13:51:08;;;;;;;5.10;1.33;;;;;;;;;;5033767;28;20073;-65
2021/08/08 13:53:36;;;;;;;1.98;1.00;;;;;;;;;;5033574;28;20300;-65
2021/08/08 13:56:04;;;;;;;3.53;1.08;;;;;;;;;;5033640;28;20054;-67
2021/08/08 13:58:31;;;;;;;3.80;1.27;;;;;;;;;;5033146;28;20045;-66
2021/08/08 14:00:58;;;;;;;2.45;1.05;;;;;;;;;;5033452;28;20227;-67
2021/08/08 14:03:25;;;;;;;2.30;0.80;;;;;;;;;;5033394;28;20045;-66
2021/08/08 14:05:54;;;;;;;2.67;0.95;;;;;;;;;;5033237;28;20517;-66
2021/08/08 14:08:21;;;;;;;2.35;1.30;;;;;;;;;;5033235;28;20045;-66
2021/08/08 14:10:49;;;;;;;3.85;1.27;;;;;;;;;;5033308;28;20037;-66
2021/08/08 14:13:16;;;;;;;3.83;1.55;;;;;;;;;;5033094;28;20552;-66
2021/08/08 14:15:43;;;;;;;5.57;1.00;;;;;;;;;;5033316;28;20046;-66
2021/08/08 14:18:10;;;;;;;4.38;1.15;;;;;;;;;;5032960;28;20056;-66
2021/08/08 14:20:38;;;;;;;2.83;1.20;;;;;;;;;;5032649;28;20531;-66
2021/08/08 14:23:06;;;;;;;3.92;1.63;;;;;;;;;;5033057;28;20045;-66
2021/08/08 14:25:34;;;;;;;5.97;1.88;;;;;;;;;;5032969;28;20049;-65
2021/08/08 14:28:01;;;;;;;3.67;1.30;;;;;;;;;;5032889;28;20468;-66
2021/08/08 14:30:29;;;;;;;3.08;1.23;;;;;;;;;;5032673;28;20250;-65
2021/08/08 14:32:56;;;;;;;4.88;1.50;;;;;;;;;;5032679;28;20045;-66
2021/08/08 14:35:24;;;;;;;2.10;1.50;;;;;;;;;;5032484;28;20045;-64
2021/08/08 14:37:51;;;;;;;4.38;1.05;;;;;;;;;;5032513;28;20400;-64
2021/08/08 14:40:20;;;;;;;2.05;1.20;;;;;;;;;;5025390;28;20521;-64
2021/08/08 14:42:47;;;;;;;6.05;1.60;;;;;;;;;;5019343;28;20217;-65
2021/08/08 14:45:15;;;;;;;1.75;1.20;;;;;;;;;;5032655;28;20052;-65
2021/08/08 14:47:42;;;;;;;3.80;1.20;;;;;;;;;;5032418;28;20053;-64
2021/08/08 14:50:10;;;;;;;1.65;1.00;;;;;;;;;;5031171;28;20052;-65
2021/08/08 14:52:37;;;;;;;4.82;1.90;;;;;;;;;;5031649;28;20128;-65
2021/08/08 14:55:05;;;;;;;2.45;1.00;;;;;;;;;;5032117;28;20568;-65
2021/08/08 14:57:33;;;;;;;1.42;0.90;;;;;;;;;;5031942;28;20046;-65
2021/08/08 15:00:01;;;;;;;3.08;1.10;;;;;;;;;;5032164;28;20076;-65
2021/08/08 15:02:28;;;;;;;2.28;0.98;;;;;;;;;;5032103;28;20045;-65
2021/08/08 15:04:55;;;;;;;4.70;1.25;;;;;;;;;;5032113;28;20060;-65
2021/08/08 15:07:23;;;;;;;5.07;1.35;;;;;;;;;;5032058;28;20145;-65
2021/08/08 15:09:50;;;;;;;2.65;1.10;;;;;;;;;;5031919;28;20420;-65
2021/08/08 15:12:18;;;;;;;6.13;1.35;;;;;;;;;;5032320;28;20424;-65
2021/08/08 15:14:46;;;;;;;1.80;1.10;;;;;;;;;;5032035;28;20060;-65
2021/08/08 15:17:14;;;;;;;3.10;1.48;;;;;;;;;;5032366;28;20041;-65
2021/08/08 15:19:41;;;;;;;3.85;1.00;;;;;;;;;;5031775;28;20398;-65
2021/08/08 15:22:08;;;;;;;3.17;1.30;;;;;;;;;;5032147;28;20046;-65
2021/08/08 15:24:35;;;;;;;3.63;1.25;;;;;;;;;;5032084;28;20482;-65
2021/08/08 15:27:03;;;;;;;4.57;1.38;;;;;;;;;;5032263;28;20431;-65
2021/08/08 15:29:30;;;;;;;4.80;1.40;;;;;;;;;;5032137;28;20049;-65
2021/08/08 15:31:59;;;;;;;3.72;1.40;;;;;;;;;;5032245;28;20406;-64
2021/08/08 15:34:26;;;;;;;5.35;2.05;;;;;;;;;;5031905;28;20599;-65
2021/08/08 15:36:55;;;;;;;5.07;1.85;;;;;;;;;;5031667;28;20042;-65
2021/08/08 15:39:22;;;;;;;2.60;1.40;;;;;;;;;;5031559;28;20072;-65
2021/08/08 15:41:49;;;;;;;4.30;1.40;;;;;;;;;;5011946;28;20050;-65
2021/08/08 15:44:16;;;;;;;4.50;1.80;;;;;;;;;;5030413;28;20049;-65
2021/08/08 15:46:44;;;;;;;2.65;1.50;;;;;;;;;;5031135;28;20202;-65
2021/08/08 15:49:12;;;;;;;6.03;1.60;;;;;;;;;;5032096;28;20397;-65
2021/08/08 15:51:40;;;;;;;7.20;1.75;;;;;;;;;;5031137;28;20077;-65
2021/08/08 15:54:07;;;;;;;4.05;1.42;;;;;;;;;;5031099;28;20060;-65
2021/08/08 15:56:34;;;;;;;6.32;1.60;;;;;;;;;;5030828;28;20052;-66
2021/08/08 15:59:01;;;;;;;4.90;1.85;;;;;;;;;;5030950;28;20038;-65
2021/08/08 16:01:29;;;;;;;3.33;1.67;;;;;;;;;;5030546;28;20048;-65
2021/08/08 16:03:56;;;;;;;3.63;1.80;;;;;;;;;;5030840;28;20408;-66
2021/08/08 16:06:24;;;;;;;2.83;1.40;;;;;;;;;;5031095;28;20049;-65
2021/08/08 16:08:52;;;;;;;6.60;1.73;;;;;;;;;;5030992;28;20041;-66
2021/08/08 16:11:19;;;;;;;5.38;1.88;;;;;;;;;;5031031;28;20111;-66
2021/08/08 16:13:46;;;;;;;4.20;1.95;;;;;;;;;;5030643;28;20448;-65
2021/08/08 16:16:14;;;;;;;5.93;1.80;;;;;;;;;;5030734;28;20049;-66
2021/08/08 16:18:41;;;;;;;5.15;1.67;;;;;;;;;;5030638;28;20041;-66
2021/08/08 16:21:08;;;;;;;3.45;1.42;;;;;;;;;;5030720;28;20040;-65
2021/08/08 16:23:37;;;;;;;8.05;2.00;;;;;;;;;;5030702;28;20573;-66
2021/08/08 16:26:05;;;;;;;5.90;1.80;;;;;;;;;;5030745;28;20146;-66
2021/08/08 16:28:34;;;;;;;4.70;2.00;;;;;;;;;;5030742;28;20050;-66
2021/08/08 16:31:01;;;;;;;3.50;1.67;;;;;;;;;;5030545;28;20037;-66
2021/08/08 16:33:28;;;;;;;5.07;1.83;;;;;;;;;;5030458;28;20048;-66
2021/08/08 16:35:56;;;;;;;3.35;1.45;;;;;;;;;;5012498;28;20049;-66
2021/08/08 16:38:23;;;;;;;3.58;1.13;;;;;;;;;;5030345;28;20041;-65
2021/08/08 16:40:52;;;;;;;2.30;1.00;;;;;;;;;;5018722;28;20413;-66
2021/08/08 16:43:19;;;;;;;4.18;1.25;;;;;;;;;;5021477;28;20125;-66
2021/08/08 16:45:47;;;;;;;3.80;1.20;;;;;;;;;;5030088;28;20505;-66
2021/08/08 16:48:14;;;;;;;3.25;0.82;;;;;;;;;;5030186;28;20064;-66
2021/08/08 16:50:41;;;;;;;3.75;0.95;;;;;;;;;;5012154;28;20064;-65
2021/08/08 16:53:08;;;;;;;2.42;1.23;;;;;;;;;;5030253;28;20033;-66
2021/08/08 16:55:36;;;;;;;2.60;0.90;;;;;;;;;;5030112;28;20049;-66
2021/08/08 16:58:04;;;;;;;5.38;2.38;;;;;;;;;;5030583;28;20060;-66
2021/08/08 17:00:32;;;;;;;4.82;2.63;;;;;;;;;;5030243;28;20052;-66
2021/08/08 17:02:59;;;;;;;6.22;2.50;;;;;;;;;;5030379;28;20059;-66
2021/08/08 17:05:26;;;;;;;4.88;1.65;;;;;;;;;;5030219;28;20128;-65
2021/08/08 17:07:53;;;;;;;5.05;2.00;;;;;;;;;;5030020;28;20052;-66
2021/08/08 17:10:21;;;;;;;3.83;1.92;;;;;;;;;;5029562;28;20098;-66
2021/08/08 17:12:48;;;;;;;6.90;2.17;;;;;;;;;;5029184;28;20120;-66
2021/08/08 17:15:17;;;;;;;4.88;1.90;;;;;;;;;;5029733;28;20050;-66
2021/08/08 17:17:44;;;;;;;4.35;2.38;;;;;;;;;;5029608;28;20064;-66
2021/08/08 17:20:12;;;;;;;6.65;1.90;;;;;;;;;;5029690;28;20419;-66
2021/08/08 17:22:39;;;;;;;8.48;1.90;;;;;;;;;;5029445;28;20073;-66
2021/08/08 17:25:08;;;;;;;2.83;1.70;;;;;;;;;;5029502;28;20045;-66
2021/08/08 17:27:36;;;;;;;4.35;2.20;;;;;;;;;;5030171;28;20445;-65
2021/08/08 17:30:03;;;;;;;3.28;1.75;;;;;;;;;;5029868;28;20046;-65
2021/08/08 17:32:32;;;;;;;8.43;2.00;;;;;;;;;;5029418;28;20045;-66
2021/08/08 17:34:59;;;;;;;4.55;1.67;;;;;;;;;;5029521;28;20049;-66
2021/08/08 17:37:26;;;;;;;5.90;2.20;;;;;;;;;;5029407;28;20049;-66
2021/08/08 17:39:54;;;;;;;6.18;1.90;;;;;;;;;;5024982;28;20284;-66
2021/08/08 17:42:21;;;;;;;5.57;1.40;;;;;;;;;;5012789;28;20114;-66
2021/08/08 17:44:49;;;;;;;7.30;1.75;;;;;;;;;;5029815;28;20042;-66
2021/08/08 17:47:16;;;;;;;3.03;1.45;;;;;;;;;;5029403;28;20042;-66
2021/08/08 17:49:45;;;;;;;5.07;1.67;;;;;;;;;;5029757;28;20049;-65
2021/08/08 17:52:12;;;;;;;6.10;2.10;;;;;;;;;;5029110;28;20041;-66
2021/08/08 17:54:39;;;;;;;4.10;1.77;;;;;;;;;;5030170;28;20053;-66
2021/08/08 17:57:06;;;;;;;2.75;1.60;;;;;;;;;;5030531;28;20064;-66
2021/08/08 17:59:34;;;;;;;5.10;2.15;;;;;;;;;;5029414;28;20124;-66
2021/08/08 18:02:01;;;;;;;4.00;1.85;;;;;;;;;;5011291;28;20047;-66
2021/08/08 18:04:28;;;;;;;4.85;2.08;;;;;;;;;;5029116;28;20416;-66
2021/08/08 18:06:57;;;;;;;4.15;1.90;;;;;;;;;;5029245;28;20049;-66
2021/08/08 18:09:24;;;;;;;6.28;1.60;;;;;;;;;;5029513;28;20042;-66
2021/08/08 18:11:52;;;;;;;3.05;1.48;;;;;;;;;;5029489;28;20037;-66
2021/08/08 18:14:19;;;;;;;3.42;1.92;;;;;;;;;;5011831;28;20041;-66
2021/08/08 18:16:46;;;;;;;4.88;2.13;;;;;;;;;;5029282;28;20047;-66
2021/08/08 18:19:13;;;;;;;3.05;1.80;;;;;;;;;;5029653;28;20045;-66
2021/08/08 18:21:41;;;;;;;3.33;1.58;;;;;;;;;;5029348;28;20037;-66
2021/08/08 18:24:09;;;;;;;3.33;1.48;;;;;;;;;;5031565;28;20408;-66
2021/08/08 18:26:37;;;;;;;4.90;1.45;;;;;;;;;;5033207;28;20063;-66
2021/08/08 18:29:04;;;;;;;4.28;1.50;;;;;;;;;;5033213;28;20052;-66
2021/08/08 18:31:31;;;;;;;3.53;1.85;;;;;;;;;;5033036;28;20128;-66
2021/08/08 18:33:58;;;;;;;4.20;1.85;;;;;;;;;;5033235;28;20468;-66
2021/08/08 18:36:26;;;;;;;3.63;1.55;;;;;;;;;;5033556;28;20041;-66
2021/08/08 18:38:53;;;;;;;2.97;1.70;;;;;;;;;;5032942;28;20049;-66
2021/08/08 18:41:22;;;;;;;6.00;2.40;;;;;;;;;;5017479;28;20046;-67
2021/08/08 18:43:49;;;;;;;4.20;1.65;;;;;;;;;;5028017;28;20303;-67
2021/08/08 18:46:17;;;;;;;5.68;1.80;;;;;;;;;;5032736;28;20056;-66
2021/08/08 18:48:45;;;;;;;5.15;1.98;;;;;;;;;;5032878;28;20412;-66
2021/08/08 18:51:13;;;;;;;4.82;2.05;;;;;;;;;;5018632;28;20528;-66
2021/08/08 18:53:40;;;;;;;5.40;1.98;;;;;;;;;;5032436;28;20300;-66
2021/08/08 18:56:07;;;;;;;3.20;1.80;;;;;;;;;;5033561;28;20041;-66
2021/08/08 18:58:36;;;;;;;5.25;2.30;;;;;;;;;;5033340;28;20049;-66
2021/08/08 19:01:03;;;;;;;6.75;1.92;;;;;;;;;;5032592;28;20056;-66
2021/08/08 19:03:31;;;;;;;4.22;2.03;;;;;;;;;;5032183;28;20037;-66
2021/08/08 19:05:58;;;;;;;6.13;1.92;;;;;;;;;;5032259;28;20038;-66
2021/08/08 19:08:25;;;;;;;4.18;2.63;;;;;;;;;;5032062;28;20424;-66
2021/08/08 19:10:53;;;;;;;4.72;1.80;;;;;;;;;;5031922;28;20041;-67
2021/08/08 19:13:20;;;;;;;3.83;2.38;;;;;;;;;;5032145;28;20505;-66
2021/08/08 19:15:49;;;;;;;3.95;2.05;;;;;;;;;;5031919;28;20064;-65
2021/08/08 19:18:17;;;;;;;5.03;1.85;;;;;;;;;;5032081;28;20192;-66
2021/08/08 19:20:45;;;;;;;4.82;2.33;;;;;;;;;;5031970;28;20038;-66
2021/08/08 19:23:13;;;;;;;3.72;1.95;;;;;;;;;;5031760;28;20049;-66
2021/08/08 19:25:40;;;;;;;6.05;2.05;;;;;;;;;;5031922;28;20068;-66
2021/08/08 19:28:07;;;;;;;4.28;2.05;;;;;;;;;;5031795;28;20049;-66
2021/08/08 19:30:35;;;;;;;8.98;2.50;;;;;;;;;;5031681;28;20513;-66
2021/08/08 19:33:03;;;;;;;5.95;2.83;;;;;;;;;;5031624;28;20045;-66
2021/08/08 19:35:31;;;;;;;4.72;1.88;;;;;;;;;;5031300;28;20056;-65
2021/08/08 19:37:58;;;;;;;4.75;2.58;;;;;;;;;;5031448;28;20521;-66
2021/08/08 19:40:25;;;;;;;5.70;1.75;;;;;;;;;;5023637;28;20049;-65